sensor_id;sensor_type;location;lat;lon;timestamp;P1;durP1;ratioP1;P2;durP2;ratioP2
16973;SDS011;8603;46.944;7.412;2023-07-31T00:01:43;3.63;;;2.60;;
16973;SDS011;8603;46.944;7.412;2023-07-31T00:04:09;3.67;;;2.33;;
16973;SDS011;8603;46.944;7.412;2023-07-31T00:06:34;4.67;;;2.37;;
16973;SDS011;8603;46.944;7.412;2023-07-31T00:09:00;2.90;;;2.13;;
16973;SDS011;8603;46.944;7.412;2023-07-31T00:11:25;4.33;;;2.63;;
16973;SDS011;8603;46.944;7.412;2023-07-31T00:13:52;3.57;;;2.50;;
16973;SDS011;8603;46.944;7.412;2023-07-31T00:16:18;2.50;;;2.10;;
16973;SDS011;8603;46.944;7.412;2023-07-31T00:18:44;3.90;;;2.10;;
16973;SDS011;8603;46.944;7.412;2023-07-31T00:21:09;2.70;;;2.20;;
16973;SDS011;8603;46.944;7.412;2023-07-31T00:23:35;4.23;;;2.30;;
16973;SDS011;8603;46.944;7.412;2023-07-31T00:26:00;2.70;;;2.20;;
16973;SDS011;8603;46.944;7.412;2023-07-31T00:28:26;3.03;;;2.50;;
16973;SDS011;8603;46.944;7.412;2023-07-31T00:30:52;3.00;;;2.30;;
16973;SDS011;8603;46.944;7.412;2023-07-31T00:33:18;3.20;;;2.40;;
16973;SDS011;8603;46.944;7.412;2023-07-31T00:35:43;5.07;;;2.50;;
16973;SDS011;8603;46.944;7.412;2023-07-31T00:38:09;2.90;;;2.40;;
16973;SDS011;8603;46.944;7.412;2023-07-31T00:40:35;2.13;;;1.93;;
16973;SDS011;8603;46.944;7.412;2023-07-31T00:43:02;3.30;;;2.37;;
16973;SDS011;8603;46.944;7.412;2023-07-31T00:45:28;5.23;;;2.90;;
16973;SDS011;8603;46.944;7.412;2023-07-31T00:47:54;3.03;;;2.30;;
16973;SDS011;8603;46.944;7.412;2023-07-31T00:50:20;4.10;;;2.40;;
16973;SDS011;8603;46.944;7.412;2023-07-31T00:52:47;2.60;;;2.20;;
16973;SDS011;8603;46.944;7.412;2023-07-31T00:55:13;2.20;;;2.00;;
16973;SDS011;8603;46.944;7.412;2023-07-31T00:57:38;4.17;;;2.50;;
16973;SDS011;8603;46.944;7.412;2023-07-31T01:00:07;2.50;;;2.30;;
16973;SDS011;8603;46.944;7.412;2023-07-31T01:02:33;2.47;;;2.27;;
16973;SDS011;8603;46.944;7.412;2023-07-31T01:04:59;2.50;;;2.17;;
16973;SDS011;8603;46.944;7.412;2023-07-31T01:10:34;3.07;;;2.10;;
16973;SDS011;8603;46.944;7.412;2023-07-31T01:13:06;3.00;;;2.23;;
16973;SDS011;8603;46.944;7.412;2023-07-31T01:15:33;2.40;;;2.20;;
16973;SDS011;8603;46.944;7.412;2023-07-31T01:17:58;3.27;;;2.30;;
16973;SDS011;8603;46.944;7.412;2023-07-31T01:20:24;4.27;;;2.13;;
16973;SDS011;8603;46.944;7.412;2023-07-31T01:23:01;2.40;;;2.20;;
16973;SDS011;8603;46.944;7.412;2023-07-31T01:28:25;4.57;;;2.37;;
16973;SDS011;8603;46.944;7.412;2023-07-31T01:30:58;2.60;;;2.27;;
16973;SDS011;8603;46.944;7.412;2023-07-31T01:33:27;2.50;;;2.30;;
16973;SDS011;8603;46.944;7.412;2023-07-31T01:35:53;2.80;;;2.23;;
16973;SDS011;8603;46.944;7.412;2023-07-31T01:38:20;3.10;;;2.57;;
16973;SDS011;8603;46.944;7.412;2023-07-31T01:40:49;4.03;;;2.90;;
16973;SDS011;8603;46.944;7.412;2023-07-31T01:43:17;4.00;;;2.60;;
16973;SDS011;8603;46.944;7.412;2023-07-31T01:45:42;4.93;;;2.43;;
16973;SDS011;8603;46.944;7.412;2023-07-31T01:48:08;4.67;;;2.47;;
16973;SDS011;8603;46.944;7.412;2023-07-31T01:50:33;3.60;;;2.40;;
16973;SDS011;8603;46.944;7.412;2023-07-31T01:52:59;2.80;;;2.47;;
16973;SDS011;8603;46.944;7.412;2023-07-31T01:55:24;4.40;;;2.63;;
16973;SDS011;8603;46.944;7.412;2023-07-31T01:57:50;3.10;;;2.77;;
16973;SDS011;8603;46.944;7.412;2023-07-31T02:00:17;3.20;;;2.50;;
16973;SDS011;8603;46.944;7.412;2023-07-31T02:02:43;3.33;;;2.30;;
16973;SDS011;8603;46.944;7.412;2023-07-31T02:05:08;2.73;;;2.43;;
16973;SDS011;8603;46.944;7.412;2023-07-31T02:07:34;2.87;;;2.57;;
16973;SDS011;8603;46.944;7.412;2023-07-31T02:09:59;3.90;;;3.10;;
16973;SDS011;8603;46.944;7.412;2023-07-31T02:12:25;3.40;;;2.60;;
16973;SDS011;8603;46.944;7.412;2023-07-31T02:14:50;5.23;;;2.50;;
16973;SDS011;8603;46.944;7.412;2023-07-31T02:17:16;4.23;;;2.83;;
16973;SDS011;8603;46.944;7.412;2023-07-31T02:19:42;4.07;;;2.63;;
16973;SDS011;8603;46.944;7.412;2023-07-31T02:22:07;4.30;;;2.87;;
16973;SDS011;8603;46.944;7.412;2023-07-31T02:24:33;2.80;;;2.53;;
16973;SDS011;8603;46.944;7.412;2023-07-31T02:26:58;3.70;;;2.47;;
16973;SDS011;8603;46.944;7.412;2023-07-31T02:29:24;4.30;;;2.83;;
16973;SDS011;8603;46.944;7.412;2023-07-31T02:31:49;4.90;;;2.70;;
16973;SDS011;8603;46.944;7.412;2023-07-31T02:34:15;3.77;;;2.47;;
16973;SDS011;8603;46.944;7.412;2023-07-31T02:36:41;3.20;;;2.80;;
16973;SDS011;8603;46.944;7.412;2023-07-31T02:39:06;2.77;;;2.50;;
16973;SDS011;8603;46.944;7.412;2023-07-31T02:41:32;3.83;;;2.90;;
16973;SDS011;8603;46.944;7.412;2023-07-31T02:43:57;4.70;;;2.60;;
16973;SDS011;8603;46.944;7.412;2023-07-31T02:46:23;6.43;;;3.23;;
16973;SDS011;8603;46.944;7.412;2023-07-31T02:48:49;4.20;;;3.03;;
16973;SDS011;8603;46.944;7.412;2023-07-31T02:51:16;4.47;;;2.87;;
16973;SDS011;8603;46.944;7.412;2023-07-31T02:53:42;3.53;;;3.00;;
16973;SDS011;8603;46.944;7.412;2023-07-31T02:56:07;3.47;;;2.70;;
16973;SDS011;8603;46.944;7.412;2023-07-31T02:58:33;4.50;;;2.90;;
16973;SDS011;8603;46.944;7.412;2023-07-31T03:00:58;4.10;;;3.07;;
16973;SDS011;8603;46.944;7.412;2023-07-31T03:03:24;4.40;;;2.80;;
16973;SDS011;8603;46.944;7.412;2023-07-31T03:05:49;4.50;;;3.00;;
16973;SDS011;8603;46.944;7.412;2023-07-31T03:08:15;3.87;;;2.60;;
16973;SDS011;8603;46.944;7.412;2023-07-31T03:10:41;4.73;;;3.23;;
16973;SDS011;8603;46.944;7.412;2023-07-31T03:13:06;3.13;;;2.60;;
16973;SDS011;8603;46.944;7.412;2023-07-31T03:15:32;4.73;;;2.50;;
16973;SDS011;8603;46.944;7.412;2023-07-31T03:17:57;3.67;;;2.80;;
16973;SDS011;8603;46.944;7.412;2023-07-31T03:20:23;3.93;;;2.90;;
16973;SDS011;8603;46.944;7.412;2023-07-31T03:22:48;3.80;;;3.00;;
16973;SDS011;8603;46.944;7.412;2023-07-31T03:25:14;3.30;;;3.00;;
16973;SDS011;8603;46.944;7.412;2023-07-31T03:27:40;4.40;;;2.90;;
16973;SDS011;8603;46.944;7.412;2023-07-31T03:30:05;3.77;;;3.10;;
16973;SDS011;8603;46.944;7.412;2023-07-31T03:32:33;4.27;;;3.00;;
16973;SDS011;8603;46.944;7.412;2023-07-31T03:34:58;6.13;;;3.60;;
16973;SDS011;8603;46.944;7.412;2023-07-31T03:37:24;5.57;;;3.10;;
16973;SDS011;8603;46.944;7.412;2023-07-31T03:39:49;3.77;;;2.97;;
16973;SDS011;8603;46.944;7.412;2023-07-31T03:42:15;3.17;;;2.50;;
16973;SDS011;8603;46.944;7.412;2023-07-31T03:44:40;3.57;;;2.90;;
16973;SDS011;8603;46.944;7.412;2023-07-31T03:47:06;3.37;;;3.07;;
16973;SDS011;8603;46.944;7.412;2023-07-31T03:49:31;3.40;;;3.10;;
16973;SDS011;8603;46.944;7.412;2023-07-31T03:51:57;3.87;;;3.20;;
16973;SDS011;8603;46.944;7.412;2023-07-31T03:54:23;3.50;;;3.20;;
16973;SDS011;8603;46.944;7.412;2023-07-31T03:56:48;3.90;;;3.00;;
16973;SDS011;8603;46.944;7.412;2023-07-31T03:59:14;5.27;;;3.20;;
16973;SDS011;8603;46.944;7.412;2023-07-31T04:01:39;6.27;;;3.40;;
16973;SDS011;8603;46.944;7.412;2023-07-31T04:04:05;6.93;;;3.60;;
16973;SDS011;8603;46.944;7.412;2023-07-31T04:06:30;6.47;;;3.23;;
16973;SDS011;8603;46.944;7.412;2023-07-31T04:08:56;4.77;;;2.90;;
16973;SDS011;8603;46.944;7.412;2023-07-31T04:11:21;3.70;;;3.13;;
16973;SDS011;8603;46.944;7.412;2023-07-31T04:13:47;3.70;;;3.13;;
16973;SDS011;8603;46.944;7.412;2023-07-31T04:16:12;6.53;;;3.23;;
16973;SDS011;8603;46.944;7.412;2023-07-31T04:18:38;6.80;;;2.97;;
16973;SDS011;8603;46.944;7.412;2023-07-31T04:21:04;3.10;;;2.60;;
16973;SDS011;8603;46.944;7.412;2023-07-31T04:23:29;5.97;;;3.07;;
16973;SDS011;8603;46.944;7.412;2023-07-31T04:25:55;5.87;;;3.17;;
16973;SDS011;8603;46.944;7.412;2023-07-31T04:28:21;3.53;;;2.63;;
16973;SDS011;8603;46.944;7.412;2023-07-31T04:30:47;4.07;;;3.17;;
16973;SDS011;8603;46.944;7.412;2023-07-31T04:33:12;3.20;;;2.60;;
16973;SDS011;8603;46.944;7.412;2023-07-31T04:35:38;3.83;;;2.80;;
16973;SDS011;8603;46.944;7.412;2023-07-31T04:38:03;2.97;;;2.67;;
16973;SDS011;8603;46.944;7.412;2023-07-31T04:40:29;3.00;;;2.60;;
16973;SDS011;8603;46.944;7.412;2023-07-31T04:42:54;3.97;;;2.73;;
16973;SDS011;8603;46.944;7.412;2023-07-31T04:45:20;4.77;;;3.13;;
16973;SDS011;8603;46.944;7.412;2023-07-31T04:47:46;3.30;;;2.83;;
16973;SDS011;8603;46.944;7.412;2023-07-31T04:50:11;3.77;;;3.00;;
16973;SDS011;8603;46.944;7.412;2023-07-31T04:52:37;3.00;;;2.70;;
16973;SDS011;8603;46.944;7.412;2023-07-31T04:55:02;3.00;;;2.60;;
16973;SDS011;8603;46.944;7.412;2023-07-31T04:57:28;6.33;;;2.70;;
16973;SDS011;8603;46.944;7.412;2023-07-31T04:59:54;5.20;;;2.50;;
16973;SDS011;8603;46.944;7.412;2023-07-31T05:02:19;5.13;;;2.70;;
16973;SDS011;8603;46.944;7.412;2023-07-31T05:04:45;5.33;;;2.93;;
16973;SDS011;8603;46.944;7.412;2023-07-31T05:07:10;3.47;;;2.30;;
16973;SDS011;8603;46.944;7.412;2023-07-31T05:09:36;2.50;;;2.30;;
16973;SDS011;8603;46.944;7.412;2023-07-31T05:12:01;3.00;;;2.10;;
16973;SDS011;8603;46.944;7.412;2023-07-31T05:14:29;3.63;;;2.60;;
16973;SDS011;8603;46.944;7.412;2023-07-31T05:16:55;4.70;;;2.70;;
16973;SDS011;8603;46.944;7.412;2023-07-31T05:19:20;3.83;;;2.30;;
16973;SDS011;8603;46.944;7.412;2023-07-31T05:21:46;3.83;;;2.53;;
16973;SDS011;8603;46.944;7.412;2023-07-31T05:24:11;3.07;;;2.70;;
16973;SDS011;8603;46.944;7.412;2023-07-31T05:26:37;4.03;;;2.70;;
16973;SDS011;8603;46.944;7.412;2023-07-31T05:29:03;3.93;;;2.33;;
16973;SDS011;8603;46.944;7.412;2023-07-31T05:31:28;2.23;;;2.03;;
16973;SDS011;8603;46.944;7.412;2023-07-31T05:33:54;3.60;;;2.10;;
16973;SDS011;8603;46.944;7.412;2023-07-31T05:36:19;2.30;;;2.10;;
16973;SDS011;8603;46.944;7.412;2023-07-31T05:38:45;3.30;;;2.37;;
16973;SDS011;8603;46.944;7.412;2023-07-31T05:41:11;3.23;;;2.00;;
16973;SDS011;8603;46.944;7.412;2023-07-31T05:43:37;3.60;;;2.50;;
16973;SDS011;8603;46.944;7.412;2023-07-31T05:46:03;2.93;;;2.20;;
16973;SDS011;8603;46.944;7.412;2023-07-31T05:48:28;3.60;;;2.30;;
16973;SDS011;8603;46.944;7.412;2023-07-31T05:50:54;4.50;;;2.40;;
16973;SDS011;8603;46.944;7.412;2023-07-31T05:53:20;3.33;;;2.00;;
16973;SDS011;8603;46.944;7.412;2023-07-31T05:55:45;3.67;;;2.10;;
16973;SDS011;8603;46.944;7.412;2023-07-31T05:58:11;3.30;;;2.27;;
16973;SDS011;8603;46.944;7.412;2023-07-31T06:00:36;3.78;;;2.33;;
16973;SDS011;8603;46.944;7.412;2023-07-31T06:03:02;4.32;;;1.98;;
16973;SDS011;8603;46.944;7.412;2023-07-31T06:05:28;2.17;;;1.98;;
16973;SDS011;8603;46.944;7.412;2023-07-31T06:07:55;2.92;;;1.77;;
16973;SDS011;8603;46.944;7.412;2023-07-31T06:10:21;2.78;;;1.85;;
16973;SDS011;8603;46.944;7.412;2023-07-31T06:12:46;4.60;;;2.08;;
16973;SDS011;8603;46.944;7.412;2023-07-31T06:15:12;3.72;;;1.83;;
16973;SDS011;8603;46.944;7.412;2023-07-31T06:17:38;4.35;;;2.00;;
16973;SDS011;8603;46.944;7.412;2023-07-31T06:20:03;3.13;;;2.10;;
16973;SDS011;8603;46.944;7.412;2023-07-31T06:22:30;3.00;;;1.92;;
16973;SDS011;8603;46.944;7.412;2023-07-31T06:24:56;2.45;;;2.25;;
16973;SDS011;8603;46.944;7.412;2023-07-31T06:27:22;4.25;;;2.10;;
16973;SDS011;8603;46.944;7.412;2023-07-31T06:29:48;3.28;;;2.30;;
16973;SDS011;8603;46.944;7.412;2023-07-31T06:32:13;4.32;;;2.45;;
16973;SDS011;8603;46.944;7.412;2023-07-31T06:34:39;3.35;;;1.90;;
16973;SDS011;8603;46.944;7.412;2023-07-31T06:37:05;2.95;;;1.90;;
16973;SDS011;8603;46.944;7.412;2023-07-31T06:39:30;5.07;;;2.17;;
16973;SDS011;8603;46.944;7.412;2023-07-31T06:41:56;4.95;;;1.92;;
16973;SDS011;8603;46.944;7.412;2023-07-31T06:44:21;3.05;;;1.80;;
16973;SDS011;8603;46.944;7.412;2023-07-31T06:46:47;3.58;;;1.73;;
16973;SDS011;8603;46.944;7.412;2023-07-31T06:49:12;2.38;;;1.80;;
16973;SDS011;8603;46.944;7.412;2023-07-31T06:51:40;1.67;;;1.58;;
16973;SDS011;8603;46.944;7.412;2023-07-31T06:54:06;2.13;;;1.75;;
16973;SDS011;8603;46.944;7.412;2023-07-31T06:56:32;2.35;;;1.77;;
16973;SDS011;8603;46.944;7.412;2023-07-31T06:58:58;2.63;;;1.80;;
16973;SDS011;8603;46.944;7.412;2023-07-31T07:01:23;3.72;;;1.80;;
16973;SDS011;8603;46.944;7.412;2023-07-31T07:03:49;3.05;;;1.70;;
16973;SDS011;8603;46.944;7.412;2023-07-31T07:06:16;1.90;;;1.63;;
16973;SDS011;8603;46.944;7.412;2023-07-31T07:08:44;1.90;;;1.60;;
16973;SDS011;8603;46.944;7.412;2023-07-31T07:11:10;2.35;;;1.77;;
16973;SDS011;8603;46.944;7.412;2023-07-31T07:13:36;2.42;;;2.08;;
16973;SDS011;8603;46.944;7.412;2023-07-31T07:16:01;2.40;;;1.58;;
16973;SDS011;8603;46.944;7.412;2023-07-31T07:18:27;2.97;;;1.88;;
16973;SDS011;8603;46.944;7.412;2023-07-31T07:20:53;2.28;;;1.55;;
16973;SDS011;8603;46.944;7.412;2023-07-31T07:23:19;2.85;;;1.73;;
16973;SDS011;8603;46.944;7.412;2023-07-31T07:25:46;2.30;;;1.63;;
16973;SDS011;8603;46.944;7.412;2023-07-31T07:28:12;2.40;;;1.88;;
16973;SDS011;8603;46.944;7.412;2023-07-31T07:30:38;2.20;;;1.80;;
16973;SDS011;8603;46.944;7.412;2023-07-31T07:33:04;4.03;;;2.00;;
16973;SDS011;8603;46.944;7.412;2023-07-31T07:35:30;5.70;;;2.08;;
16973;SDS011;8603;46.944;7.412;2023-07-31T07:37:58;2.67;;;1.60;;
16973;SDS011;8603;46.944;7.412;2023-07-31T07:40:27;2.10;;;1.70;;
16973;SDS011;8603;46.944;7.412;2023-07-31T07:42:53;3.13;;;1.73;;
16973;SDS011;8603;46.944;7.412;2023-07-31T07:45:18;2.03;;;1.83;;
16973;SDS011;8603;46.944;7.412;2023-07-31T07:47:44;1.95;;;1.60;;
16973;SDS011;8603;46.944;7.412;2023-07-31T07:50:09;2.40;;;1.83;;
16973;SDS011;8603;46.944;7.412;2023-07-31T07:52:35;3.15;;;1.90;;
16973;SDS011;8603;46.944;7.412;2023-07-31T07:55:00;3.67;;;1.70;;
16973;SDS011;8603;46.944;7.412;2023-07-31T07:57:26;2.97;;;1.83;;
16973;SDS011;8603;46.944;7.412;2023-07-31T07:59:52;2.35;;;1.77;;
16973;SDS011;8603;46.944;7.412;2023-07-31T08:02:18;2.08;;;1.67;;
16973;SDS011;8603;46.944;7.412;2023-07-31T08:04:43;2.55;;;1.60;;
16973;SDS011;8603;46.944;7.412;2023-07-31T08:07:12;2.55;;;1.70;;
16973;SDS011;8603;46.944;7.412;2023-07-31T08:09:38;2.35;;;1.60;;
16973;SDS011;8603;46.944;7.412;2023-07-31T08:12:04;1.83;;;1.50;;
16973;SDS011;8603;46.944;7.412;2023-07-31T08:14:30;3.05;;;1.85;;
16973;SDS011;8603;46.944;7.412;2023-07-31T08:16:56;2.53;;;1.83;;
16973;SDS011;8603;46.944;7.412;2023-07-31T08:19:22;3.47;;;1.70;;
16973;SDS011;8603;46.944;7.412;2023-07-31T08:21:47;2.13;;;1.60;;
16973;SDS011;8603;46.944;7.412;2023-07-31T08:24:13;1.60;;;1.50;;
16973;SDS011;8603;46.944;7.412;2023-07-31T08:26:38;3.67;;;1.88;;
16973;SDS011;8603;46.944;7.412;2023-07-31T08:29:04;2.47;;;2.00;;
16973;SDS011;8603;46.944;7.412;2023-07-31T08:31:30;4.00;;;1.85;;
16973;SDS011;8603;46.944;7.412;2023-07-31T08:33:55;2.30;;;1.65;;
16973;SDS011;8603;46.944;7.412;2023-07-31T08:36:21;5.97;;;1.83;;
16973;SDS011;8603;46.944;7.412;2023-07-31T08:38:47;2.92;;;1.88;;
16973;SDS011;8603;46.944;7.412;2023-07-31T08:41:13;2.15;;;1.65;;
16973;SDS011;8603;46.944;7.412;2023-07-31T08:43:42;2.40;;;1.70;;
16973;SDS011;8603;46.944;7.412;2023-07-31T08:46:10;2.13;;;1.60;;
16973;SDS011;8603;46.944;7.412;2023-07-31T08:48:35;1.75;;;1.63;;
16973;SDS011;8603;46.944;7.412;2023-07-31T08:51:03;2.70;;;1.80;;
16973;SDS011;8603;46.944;7.412;2023-07-31T08:53:29;2.50;;;1.60;;
16973;SDS011;8603;46.944;7.412;2023-07-31T08:55:54;2.13;;;1.60;;
16973;SDS011;8603;46.944;7.412;2023-07-31T08:58:23;3.20;;;1.73;;
16973;SDS011;8603;46.944;7.412;2023-07-31T09:00:50;2.25;;;1.90;;
16973;SDS011;8603;46.944;7.412;2023-07-31T09:03:17;2.85;;;2.00;;
16973;SDS011;8603;46.944;7.412;2023-07-31T09:05:44;2.50;;;1.67;;
16973;SDS011;8603;46.944;7.412;2023-07-31T09:08:12;2.85;;;1.80;;
16973;SDS011;8603;46.944;7.412;2023-07-31T09:10:40;2.65;;;1.85;;
16973;SDS011;8603;46.944;7.412;2023-07-31T09:13:07;2.30;;;1.90;;
16973;SDS011;8603;46.944;7.412;2023-07-31T09:15:33;2.47;;;1.98;;
16973;SDS011;8603;46.944;7.412;2023-07-31T09:18:00;2.30;;;2.10;;
16973;SDS011;8603;46.944;7.412;2023-07-31T09:20:26;5.15;;;2.28;;
16973;SDS011;8603;46.944;7.412;2023-07-31T09:22:52;4.40;;;2.45;;
16973;SDS011;8603;46.944;7.412;2023-07-31T09:25:22;5.45;;;2.40;;
16973;SDS011;8603;46.944;7.412;2023-07-31T09:28:01;2.17;;;1.98;;
16973;SDS011;8603;46.944;7.412;2023-07-31T09:30:28;3.67;;;2.38;;
16973;SDS011;8603;46.944;7.412;2023-07-31T09:33:04;3.75;;;2.20;;
16973;SDS011;8603;46.944;7.412;2023-07-31T09:35:35;2.65;;;2.10;;
16973;SDS011;8603;46.944;7.412;2023-07-31T09:38:10;4.35;;;2.30;;
16973;SDS011;8603;46.944;7.412;2023-07-31T09:40:37;3.00;;;2.03;;
16973;SDS011;8603;46.944;7.412;2023-07-31T09:43:05;2.08;;;1.77;;
16973;SDS011;8603;46.944;7.412;2023-07-31T09:45:35;2.85;;;1.98;;
16973;SDS011;8603;46.944;7.412;2023-07-31T09:48:02;2.08;;;1.67;;
16973;SDS011;8603;46.944;7.412;2023-07-31T09:50:29;2.67;;;1.58;;
16973;SDS011;8603;46.944;7.412;2023-07-31T09:52:55;2.95;;;1.83;;
16973;SDS011;8603;46.944;7.412;2023-07-31T09:55:20;3.25;;;2.10;;
16973;SDS011;8603;46.944;7.412;2023-07-31T09:57:47;2.63;;;1.75;;
16973;SDS011;8603;46.944;7.412;2023-07-31T10:00:14;2.30;;;1.70;;
16973;SDS011;8603;46.944;7.412;2023-07-31T10:02:42;2.05;;;1.80;;
16973;SDS011;8603;46.944;7.412;2023-07-31T10:05:11;3.03;;;1.90;;
16973;SDS011;8603;46.944;7.412;2023-07-31T10:07:45;2.92;;;1.95;;
16973;SDS011;8603;46.944;7.412;2023-07-31T10:10:16;3.08;;;2.10;;
16973;SDS011;8603;46.944;7.412;2023-07-31T10:12:45;3.55;;;2.05;;
16973;SDS011;8603;46.944;7.412;2023-07-31T10:15:11;2.45;;;1.83;;
16973;SDS011;8603;46.944;7.412;2023-07-31T10:17:37;4.38;;;2.30;;
16973;SDS011;8603;46.944;7.412;2023-07-31T10:20:03;4.30;;;2.03;;
16973;SDS011;8603;46.944;7.412;2023-07-31T10:22:30;4.97;;;2.10;;
16973;SDS011;8603;46.944;7.412;2023-07-31T10:24:57;3.25;;;1.88;;
16973;SDS011;8603;46.944;7.412;2023-07-31T10:27:24;3.60;;;2.00;;
16973;SDS011;8603;46.944;7.412;2023-07-31T10:29:50;2.95;;;2.13;;
16973;SDS011;8603;46.944;7.412;2023-07-31T10:32:18;4.72;;;1.85;;
16973;SDS011;8603;46.944;7.412;2023-07-31T10:34:45;3.22;;;2.08;;
16973;SDS011;8603;46.944;7.412;2023-07-31T10:39:58;4.53;;;2.08;;
16973;SDS011;8603;46.944;7.412;2023-07-31T10:42:29;2.60;;;2.03;;
16973;SDS011;8603;46.944;7.412;2023-07-31T10:45:00;3.13;;;2.10;;
16973;SDS011;8603;46.944;7.412;2023-07-31T10:47:30;3.45;;;2.00;;
16973;SDS011;8603;46.944;7.412;2023-07-31T10:52:47;2.55;;;1.80;;
16973;SDS011;8603;46.944;7.412;2023-07-31T10:58:07;4.53;;;2.00;;
16973;SDS011;8603;46.944;7.412;2023-07-31T11:00:36;4.13;;;2.15;;
16973;SDS011;8603;46.944;7.412;2023-07-31T11:03:10;2.83;;;1.80;;
16973;SDS011;8603;46.944;7.412;2023-07-31T11:05:45;3.10;;;1.88;;
16973;SDS011;8603;46.944;7.412;2023-07-31T11:10:44;3.40;;;1.83;;
16973;SDS011;8603;46.944;7.412;2023-07-31T11:13:11;3.22;;;2.20;;
16973;SDS011;8603;46.944;7.412;2023-07-31T11:15:36;3.17;;;2.17;;
16973;SDS011;8603;46.944;7.412;2023-07-31T11:18:02;3.30;;;2.05;;
16973;SDS011;8603;46.944;7.412;2023-07-31T11:20:30;2.90;;;2.17;;
16973;SDS011;8603;46.944;7.412;2023-07-31T11:23:00;3.08;;;1.67;;
16973;SDS011;8603;46.944;7.412;2023-07-31T11:25:28;3.42;;;1.98;;
16973;SDS011;8603;46.944;7.412;2023-07-31T11:27:55;2.75;;;2.10;;
16973;SDS011;8603;46.944;7.412;2023-07-31T11:30:21;5.47;;;1.80;;
16973;SDS011;8603;46.944;7.412;2023-07-31T11:32:47;2.42;;;1.90;;
16973;SDS011;8603;46.944;7.412;2023-07-31T11:35:12;3.22;;;2.05;;
16973;SDS011;8603;46.944;7.412;2023-07-31T11:37:38;3.25;;;1.83;;
16973;SDS011;8603;46.944;7.412;2023-07-31T11:40:07;3.78;;;2.35;;
16973;SDS011;8603;46.944;7.412;2023-07-31T11:42:37;2.58;;;1.70;;
16973;SDS011;8603;46.944;7.412;2023-07-31T11:45:07;3.08;;;2.03;;
16973;SDS011;8603;46.944;7.412;2023-07-31T11:47:34;4.95;;;2.00;;
16973;SDS011;8603;46.944;7.412;2023-07-31T11:50:02;2.67;;;2.17;;
16973;SDS011;8603;46.944;7.412;2023-07-31T11:52:29;2.70;;;1.85;;
16973;SDS011;8603;46.944;7.412;2023-07-31T11:54:58;2.47;;;1.95;;
16973;SDS011;8603;46.944;7.412;2023-07-31T11:57:25;3.60;;;2.08;;
16973;SDS011;8603;46.944;7.412;2023-07-31T11:59:50;2.53;;;2.03;;
16973;SDS011;8603;46.944;7.412;2023-07-31T12:02:17;2.78;;;2.20;;
16973;SDS011;8603;46.944;7.412;2023-07-31T12:04:43;3.00;;;1.90;;
16973;SDS011;8603;46.944;7.412;2023-07-31T12:07:10;3.15;;;2.00;;
16973;SDS011;8603;46.944;7.412;2023-07-31T12:09:37;2.63;;;1.90;;
16973;SDS011;8603;46.944;7.412;2023-07-31T12:12:03;3.92;;;2.00;;
16973;SDS011;8603;46.944;7.412;2023-07-31T12:14:34;2.10;;;1.73;;
16973;SDS011;8603;46.944;7.412;2023-07-31T12:17:01;2.40;;;1.90;;
16973;SDS011;8603;46.944;7.412;2023-07-31T12:19:29;2.30;;;1.80;;
16973;SDS011;8603;46.944;7.412;2023-07-31T12:21:56;2.88;;;2.10;;
16973;SDS011;8603;46.944;7.412;2023-07-31T12:24:22;3.55;;;1.98;;
16973;SDS011;8603;46.944;7.412;2023-07-31T12:26:48;3.03;;;2.15;;
16973;SDS011;8603;46.944;7.412;2023-07-31T12:29:14;4.65;;;2.30;;
16973;SDS011;8603;46.944;7.412;2023-07-31T12:31:43;2.60;;;2.13;;
16973;SDS011;8603;46.944;7.412;2023-07-31T12:34:18;2.88;;;2.05;;
16973;SDS011;8603;46.944;7.412;2023-07-31T12:36:48;3.10;;;1.80;;
16973;SDS011;8603;46.944;7.412;2023-07-31T12:39:14;3.00;;;2.00;;
16973;SDS011;8603;46.944;7.412;2023-07-31T12:41:40;3.15;;;2.60;;
16973;SDS011;8603;46.944;7.412;2023-07-31T12:44:05;3.05;;;1.90;;
16973;SDS011;8603;46.944;7.412;2023-07-31T12:46:31;2.30;;;1.95;;
16973;SDS011;8603;46.944;7.412;2023-07-31T12:48:57;3.67;;;2.10;;
16973;SDS011;8603;46.944;7.412;2023-07-31T12:51:22;2.65;;;1.90;;
16973;SDS011;8603;46.944;7.412;2023-07-31T12:53:48;3.08;;;2.13;;
16973;SDS011;8603;46.944;7.412;2023-07-31T12:56:13;2.33;;;1.98;;
16973;SDS011;8603;46.944;7.412;2023-07-31T12:58:42;3.20;;;2.10;;
16973;SDS011;8603;46.944;7.412;2023-07-31T13:01:07;2.72;;;2.08;;
16973;SDS011;8603;46.944;7.412;2023-07-31T13:03:33;2.85;;;1.73;;
16973;SDS011;8603;46.944;7.412;2023-07-31T13:05:58;4.97;;;2.03;;
16973;SDS011;8603;46.944;7.412;2023-07-31T13:08:24;4.70;;;1.90;;
16973;SDS011;8603;46.944;7.412;2023-07-31T13:10:49;3.85;;;1.90;;
16973;SDS011;8603;46.944;7.412;2023-07-31T13:13:15;1.77;;;1.55;;
16973;SDS011;8603;46.944;7.412;2023-07-31T13:15:41;2.00;;;1.80;;
16973;SDS011;8603;46.944;7.412;2023-07-31T13:18:06;3.40;;;1.90;;
16973;SDS011;8603;46.944;7.412;2023-07-31T13:20:32;2.72;;;2.08;;
16973;SDS011;8603;46.944;7.412;2023-07-31T13:22:57;1.83;;;1.63;;
16973;SDS011;8603;46.944;7.412;2023-07-31T13:25:23;2.20;;;2.00;;
16973;SDS011;8603;46.944;7.412;2023-07-31T13:27:49;3.65;;;2.22;;
16973;SDS011;8603;46.944;7.412;2023-07-31T13:30:14;2.55;;;1.80;;
16973;SDS011;8603;46.944;7.412;2023-07-31T13:32:40;3.45;;;2.10;;
16973;SDS011;8603;46.944;7.412;2023-07-31T13:35:05;1.58;;;1.40;;
16973;SDS011;8603;46.944;7.412;2023-07-31T13:37:32;2.22;;;2.03;;
16973;SDS011;8603;46.944;7.412;2023-07-31T13:39:57;2.80;;;1.85;;
16973;SDS011;8603;46.944;7.412;2023-07-31T13:42:23;2.53;;;2.08;;
16973;SDS011;8603;46.944;7.412;2023-07-31T13:44:48;2.30;;;2.10;;
16973;SDS011;8603;46.944;7.412;2023-07-31T13:47:14;3.38;;;2.20;;
16973;SDS011;8603;46.944;7.412;2023-07-31T13:49:40;3.60;;;2.63;;
16973;SDS011;8603;46.944;7.412;2023-07-31T13:52:08;3.38;;;2.10;;
16973;SDS011;8603;46.944;7.412;2023-07-31T13:54:33;3.38;;;2.67;;
16973;SDS011;8603;46.944;7.412;2023-07-31T13:56:59;2.83;;;2.40;;
16973;SDS011;8603;46.944;7.412;2023-07-31T13:59:25;2.10;;;1.90;;
16973;SDS011;8603;46.944;7.412;2023-07-31T14:01:50;2.67;;;2.33;;
16973;SDS011;8603;46.944;7.412;2023-07-31T14:04:16;2.92;;;2.22;;
16973;SDS011;8603;46.944;7.412;2023-07-31T14:06:43;2.42;;;2.00;;
16973;SDS011;8603;46.944;7.412;2023-07-31T14:09:09;3.70;;;2.22;;
16973;SDS011;8603;46.944;7.412;2023-07-31T14:11:34;2.97;;;2.40;;
16973;SDS011;8603;46.944;7.412;2023-07-31T14:14:00;2.72;;;2.22;;
16973;SDS011;8603;46.944;7.412;2023-07-31T14:16:27;5.97;;;2.47;;
16973;SDS011;8603;46.944;7.412;2023-07-31T14:18:53;3.80;;;2.50;;
16973;SDS011;8603;46.944;7.412;2023-07-31T14:21:19;2.88;;;2.40;;
16973;SDS011;8603;46.944;7.412;2023-07-31T14:23:45;4.35;;;2.63;;
16973;SDS011;8603;46.944;7.412;2023-07-31T14:26:11;3.33;;;2.95;;
16973;SDS011;8603;46.944;7.412;2023-07-31T14:28:36;3.22;;;2.58;;
16973;SDS011;8603;46.944;7.412;2023-07-31T14:31:02;4.22;;;3.20;;
16973;SDS011;8603;46.944;7.412;2023-07-31T14:33:28;4.57;;;3.10;;
16973;SDS011;8603;46.944;7.412;2023-07-31T14:35:53;4.78;;;3.00;;
16973;SDS011;8603;46.944;7.412;2023-07-31T14:38:19;6.18;;;3.20;;
16973;SDS011;8603;46.944;7.412;2023-07-31T14:40:44;4.55;;;3.05;;
16973;SDS011;8603;46.944;7.412;2023-07-31T14:43:10;3.40;;;2.70;;
16973;SDS011;8603;46.944;7.412;2023-07-31T14:45:36;4.82;;;3.20;;
16973;SDS011;8603;46.944;7.412;2023-07-31T14:48:01;3.75;;;3.40;;
16973;SDS011;8603;46.944;7.412;2023-07-31T14:50:27;3.78;;;3.10;;
16973;SDS011;8603;46.944;7.412;2023-07-31T14:52:53;3.83;;;2.75;;
16973;SDS011;8603;46.944;7.412;2023-07-31T14:55:19;6.75;;;3.30;;
16973;SDS011;8603;46.944;7.412;2023-07-31T14:57:44;3.28;;;2.95;;
16973;SDS011;8603;46.944;7.412;2023-07-31T15:00:10;3.85;;;2.70;;
16973;SDS011;8603;46.944;7.412;2023-07-31T15:02:36;3.00;;;2.67;;
16973;SDS011;8603;46.944;7.412;2023-07-31T15:05:02;3.10;;;2.75;;
16973;SDS011;8603;46.944;7.412;2023-07-31T15:07:28;3.85;;;3.10;;
16973;SDS011;8603;46.944;7.412;2023-07-31T15:09:54;5.32;;;3.03;;
16973;SDS011;8603;46.944;7.412;2023-07-31T15:12:19;4.68;;;3.25;;